createdAt,value
2022-08-20T00:09:53.666Z,7
2022-08-20T00:25:03.025Z,5.7
2022-08-20T00:40:23.775Z,3.6
2022-08-20T00:55:34.755Z,3.1
2022-08-20T01:10:43.875Z,8.4
2022-08-20T01:25:53.456Z,5.6
2022-08-20T01:41:02.930Z,7.2
2022-08-20T01:59:49.865Z,5.4
2022-08-20T02:15:01.218Z,7.3
2022-08-20T02:30:28.715Z,6.3
2022-08-20T02:45:39.013Z,4.9
2022-08-20T03:00:48.301Z,3.3
2022-08-20T03:15:59.462Z,5.9
2022-08-20T03:31:08.830Z,3.8
2022-08-20T03:46:24.257Z,6
2022-08-20T04:01:47.282Z,6.9
2022-08-20T04:16:56.860Z,4.6
2022-08-20T04:32:06.613Z,11
2022-08-20T04:47:15.708Z,11.7
2022-08-20T05:02:43.701Z,9.2
2022-08-20T05:17:53.353Z,10.3
2022-08-20T05:33:02.683Z,10.4
2022-08-20T05:48:13.170Z,9.4
2022-08-20T06:03:22.603Z,10.8
2022-08-20T06:18:31.875Z,11.7
2022-08-20T06:33:41.684Z,13.5
2022-08-20T06:48:51.254Z,10.4
2022-08-20T07:04:01.133Z,9.8
2022-08-20T07:19:10.629Z,13.4
2022-08-20T07:34:19.973Z,12.4
2022-08-20T07:49:29.609Z,17
2022-08-20T08:04:39.135Z,13.8
2022-08-20T08:19:48.784Z,14.9
2022-08-20T08:34:58.792Z,12.7
2022-08-20T08:50:08.456Z,13.4
2022-08-20T09:05:18.054Z,12
2022-08-20T09:20:28.261Z,10.7
2022-08-20T09:35:38.412Z,15
2022-08-20T09:50:47.938Z,16.2
2022-08-20T10:05:58.263Z,16.5
2022-08-20T10:21:07.306Z,26
2022-08-20T10:36:16.887Z,13.6
2022-08-20T10:51:33.297Z,12.5
2022-08-20T11:06:42.820Z,8.9
2022-08-20T11:21:52.076Z,12.7
2022-08-20T11:37:01.346Z,7.7
2022-08-20T11:52:15.675Z,6.1
2022-08-20T12:07:26.422Z,7
2022-08-20T12:22:36.156Z,6.4
2022-08-20T12:37:47.531Z,8.7
2022-08-20T12:52:58.690Z,7.4
2022-08-20T13:08:08.459Z,6.3
2022-08-20T13:23:17.727Z,6.9
2022-08-20T13:38:28.039Z,7.5
2022-08-20T13:53:37.024Z,6
2022-08-20T14:08:48.246Z,9
2022-08-20T14:23:59.263Z,4.2
2022-08-20T14:39:09.157Z,6.3
2022-08-20T14:54:17.476Z,4
2022-08-20T15:09:26.687Z,6.9
2022-08-20T15:24:42.835Z,4.6
2022-08-20T15:39:53.616Z,3.7
2022-08-20T15:55:02.272Z,3.8
2022-08-20T16:10:16.227Z,3.1
2022-08-20T16:25:29.418Z,5.2
2022-08-20T16:40:39.099Z,4.9
2022-08-20T16:55:48.276Z,5.5
2022-08-20T17:10:57.657Z,7
2022-08-20T17:26:06.775Z,9.8
2022-08-20T17:41:17.746Z,5.7
2022-08-20T17:56:26.874Z,6
2022-08-20T18:11:35.814Z,7.8
2022-08-20T18:26:45.226Z,4.5
2022-08-20T18:41:54.425Z,5.1
2022-08-20T18:57:03.853Z,4.3
2022-08-20T19:12:13.794Z,6.5
2022-08-20T19:27:23.597Z,5.1
2022-08-20T19:42:33.537Z,4.6
2022-08-20T19:57:42.727Z,3.8
2022-08-20T20:12:52.942Z,5.2
2022-08-20T20:28:02.096Z,5.1
2022-08-20T20:43:12.033Z,4.9
2022-08-20T20:58:23.903Z,3.5
2022-08-20T21:13:33.430Z,3.1
2022-08-20T21:28:42.505Z,3.7
2022-08-20T21:43:51.806Z,2.9
2022-08-20T21:59:01.376Z,4.8
2022-08-20T22:14:10.054Z,3.8
2022-08-20T22:29:19.175Z,5.4
2022-08-20T22:44:27.933Z,3
2022-08-20T22:59:53.561Z,6.5
2022-08-20T23:15:05.953Z,4.4
2022-08-20T23:30:14.904Z,4
2022-08-20T23:45:28.138Z,5.6
